Time;durP1;ratioP1;P1;durP2;ratioP2;P2;SDS_P1;SDS_P2;PMS_P1;PMS_P2;Temp;Humidity;BMP_temperature;BMP_pressure;BME280_temperature;BME280_humidity;BME280_pressure;Samples;Min_cycle;Max_cycle;Signal;HPM_P1;HPM_P2
2022/07/22 00:01:50;;;;;;;1.42;0.60;;;16.20;99.90;;;;;;5038418;28;20152;-78
2022/07/22 00:04:16;;;;;;;1.38;0.68;;;16.20;99.90;;;;;;5041109;28;20037;-79
2022/07/22 00:06:42;;;;;;;2.67;0.70;;;16.20;99.90;;;;;;5037707;28;20051;-78
2022/07/22 00:09:08;;;;;;;2.10;0.75;;;16.20;99.90;;;;;;5038367;28;20033;-78
2022/07/22 00:11:34;;;;;;;2.00;0.90;;;16.20;99.90;;;;;;5022801;28;20159;-78
2022/07/22 00:14:00;;;;;;;1.83;0.93;;;16.10;99.90;;;;;;5037049;28;20056;-79
2022/07/22 00:16:25;;;;;;;1.63;0.80;;;16.10;99.90;;;;;;5040749;28;20444;-79
2022/07/22 00:18:51;;;;;;;2.13;0.50;;;16.10;99.90;;;;;;5034672;28;20045;-78
2022/07/22 00:21:18;;;;;;;2.67;0.80;;;16.20;99.90;;;;;;5020228;28;20073;-79
2022/07/22 00:23:44;;;;;;;1.35;0.45;;;16.10;99.90;;;;;;5048955;28;20110;-79
2022/07/22 00:26:10;;;;;;;1.50;0.70;;;16.10;99.90;;;;;;5023327;28;20593;-78
2022/07/22 00:28:35;;;;;;;5.53;0.90;;;16.10;99.90;;;;;;5023256;28;20063;-79
2022/07/22 00:31:01;;;;;;;1.55;0.60;;;16.10;99.90;;;;;;5041638;28;20067;-78
2022/07/22 00:33:27;;;;;;;2.03;0.90;;;16.10;99.90;;;;;;5038243;28;20076;-78
2022/07/22 00:35:52;;;;;;;2.20;0.60;;;16.10;99.90;;;;;;5057333;28;22360;-78
2022/07/22 00:38:18;;;;;;;2.25;1.10;;;16.10;99.90;;;;;;5036049;28;20029;-78
2022/07/22 00:40:44;;;;;;;1.17;0.63;;;16.00;99.90;;;;;;5040527;28;20040;-78
2022/07/22 00:43:09;;;;;;;3.90;1.10;;;16.10;99.90;;;;;;5022404;28;20025;-78
2022/07/22 00:45:35;;;;;;;3.13;1.05;;;16.20;99.90;;;;;;5036877;28;20033;-78
2022/07/22 00:48:01;;;;;;;2.00;1.23;;;16.20;99.90;;;;;;5037769;28;20041;-78
2022/07/22 00:50:26;;;;;;;1.02;0.60;;;16.20;99.90;;;;;;5038791;28;20055;-78
2022/07/22 00:52:52;;;;;;;4.55;0.93;;;16.20;99.90;;;;;;5038227;28;20401;-78
2022/07/22 00:55:18;;;;;;;2.35;0.70;;;16.20;99.90;;;;;;5038946;28;20054;-78
2022/07/22 00:57:44;;;;;;;3.03;0.80;;;16.20;99.90;;;;;;5037744;28;20410;-78
2022/07/22 01:00:14;;;;;;;1.48;0.68;;;16.20;99.90;;;;;;5023063;28;20045;-78
2022/07/22 01:02:40;;;;;;;2.35;1.15;;;16.20;99.90;;;;;;5050831;28;20466;-78
2022/07/22 01:05:06;;;;;;;2.72;0.93;;;16.20;99.90;;;;;;5037701;28;20108;-78
2022/07/22 01:07:32;;;;;;;2.70;0.93;;;16.20;99.90;;;;;;5038358;28;20604;-79
2022/07/22 01:09:58;;;;;;;2.47;1.08;;;16.20;99.90;;;;;;5039901;28;20086;-78
2022/07/22 01:12:23;;;;;;;2.10;0.82;;;16.20;99.90;;;;;;5036062;28;20037;-78
2022/07/22 01:14:49;;;;;;;1.70;0.77;;;16.20;99.90;;;;;;5039503;28;20488;-78
2022/07/22 01:17:16;;;;;;;2.03;0.90;;;16.10;99.90;;;;;;5040075;28;20045;-78
2022/07/22 01:19:42;;;;;;;2.10;0.70;;;16.20;99.90;;;;;;5039196;28;20102;-78
2022/07/22 01:22:07;;;;;;;1.45;0.63;;;16.20;99.90;;;;;;5033361;28;20029;-78
2022/07/22 01:24:33;;;;;;;1.85;0.80;;;16.10;99.90;;;;;;5036889;28;20379;-78
2022/07/22 01:26:59;;;;;;;1.75;0.60;;;16.10;99.90;;;;;;5036246;28;20466;-78
2022/07/22 01:29:25;;;;;;;1.92;0.80;;;16.10;99.90;;;;;;5042562;28;20467;-78
2022/07/22 01:31:51;;;;;;;2.20;0.98;;;16.10;99.90;;;;;;5036678;28;20045;-78
2022/07/22 01:34:16;;;;;;;2.08;0.77;;;16.10;99.90;;;;;;5036509;28;20095;-78
2022/07/22 01:36:42;;;;;;;1.23;0.60;;;16.10;99.90;;;;;;5037936;28;20040;-78
2022/07/22 01:39:08;;;;;;;3.80;0.60;;;16.10;99.90;;;;;;5037328;28;20392;-78
2022/07/22 01:41:33;;;;;;;2.08;0.63;;;16.10;99.90;;;;;;5039058;28;20040;-78
2022/07/22 01:43:59;;;;;;;1.70;0.80;;;16.10;99.90;;;;;;5037998;28;20106;-78
2022/07/22 01:46:25;;;;;;;1.85;0.65;;;16.10;99.90;;;;;;5036025;28;20036;-78
2022/07/22 01:48:51;;;;;;;2.83;0.50;;;16.10;99.90;;;;;;5018227;28;20044;-78
2022/07/22 01:51:17;;;;;;;3.75;0.90;;;16.10;99.90;;;;;;5038822;28;20041;-78
2022/07/22 01:53:43;;;;;;;3.00;1.25;;;16.10;99.90;;;;;;5038999;28;20048;-78
2022/07/22 01:56:08;;;;;;;4.25;1.10;;;16.10;99.90;;;;;;5037933;28;20040;-78
2022/07/22 01:58:34;;;;;;;3.35;0.77;;;16.00;99.90;;;;;;5036318;28;20045;-78
2022/07/22 02:01:00;;;;;;;3.63;0.75;;;16.10;99.90;;;;;;5039982;28;20040;-78
2022/07/22 02:03:25;;;;;;;2.30;0.68;;;16.00;99.90;;;;;;5025707;28;20037;-78
2022/07/22 02:05:51;;;;;;;1.17;0.50;;;16.00;99.90;;;;;;5041731;28;20351;-78
2022/07/22 02:08:17;;;;;;;2.75;0.65;;;16.00;99.90;;;;;;5024738;28;20506;-78
2022/07/22 02:10:43;;;;;;;1.10;0.50;;;16.00;99.90;;;;;;5038932;28;20314;-78
2022/07/22 02:13:09;;;;;;;4.18;0.82;;;16.00;99.90;;;;;;5040370;28;20541;-78
2022/07/22 02:15:35;;;;;;;1.67;0.63;;;16.10;99.90;;;;;;5041313;28;20048;-78
2022/07/22 02:18:08;;;;;;;1.77;0.60;;;16.00;99.90;;;;;;5041273;28;20044;-78
2022/07/22 02:20:34;;;;;;;2.35;0.55;;;16.00;99.90;;;;;;5039871;28;20043;-78
2022/07/22 02:23:01;;;;;;;4.13;0.73;;;16.10;99.90;;;;;;5042076;28;20063;-79
2022/07/22 02:25:26;;;;;;;5.60;0.75;;;16.00;99.90;;;;;;5023532;28;20044;-78
2022/07/22 02:27:52;;;;;;;0.85;0.47;;;16.00;99.90;;;;;;5024320;28;20396;-78
2022/07/22 02:30:17;;;;;;;2.00;0.43;;;16.00;99.90;;;;;;5024651;28;20397;-78
2022/07/22 02:32:43;;;;;;;2.08;0.85;;;16.00;99.90;;;;;;5042318;28;20045;-78
2022/07/22 02:35:09;;;;;;;3.83;0.65;;;16.00;99.90;;;;;;5040295;28;20517;-78
2022/07/22 02:37:37;;;;;;;4.20;0.50;;;16.00;99.90;;;;;;5058286;28;20056;-78
2022/07/22 02:40:04;;;;;;;0.98;0.40;;;16.00;99.90;;;;;;5042832;28;20041;-78
2022/07/22 02:42:30;;;;;;;2.10;0.50;;;16.00;99.90;;;;;;5042353;28;20056;-78
2022/07/22 02:44:55;;;;;;;1.92;0.73;;;15.90;99.90;;;;;;5040034;28;20041;-78
2022/07/22 02:47:21;;;;;;;0.65;0.38;;;15.90;99.90;;;;;;5041035;28;20048;-78
2022/07/22 02:49:47;;;;;;;1.25;0.55;;;15.90;99.90;;;;;;5038506;28;20041;-78
2022/07/22 02:52:12;;;;;;;1.20;0.52;;;15.80;99.90;;;;;;5041489;28;20044;-78
2022/07/22 02:54:38;;;;;;;1.38;0.50;;;15.90;99.90;;;;;;5042481;28;20025;-78
2022/07/22 02:57:04;;;;;;;2.85;0.47;;;15.90;99.90;;;;;;5037464;28;20437;-77
2022/07/22 02:59:30;;;;;;;2.20;0.50;;;16.00;99.90;;;;;;5037493;28;20082;-78
2022/07/22 03:01:55;;;;;;;1.02;0.50;;;15.90;99.90;;;;;;5043192;28;20029;-78
2022/07/22 03:04:21;;;;;;;3.60;0.70;;;15.90;99.90;;;;;;5027387;28;20552;-78
2022/07/22 03:06:47;;;;;;;2.55;0.50;;;15.90;99.90;;;;;;5026090;28;20090;-78
2022/07/22 03:09:12;;;;;;;2.20;0.50;;;15.90;99.90;;;;;;5040805;28;20170;-77
2022/07/22 03:11:38;;;;;;;1.13;0.40;;;15.90;99.90;;;;;;5038984;28;20423;-78
2022/07/22 03:14:03;;;;;;;0.98;0.60;;;15.90;99.90;;;;;;5036332;28;20067;-78
2022/07/22 03:16:29;;;;;;;2.42;1.02;;;15.90;99.90;;;;;;5045455;28;20052;-78
2022/07/22 03:18:55;;;;;;;2.42;0.60;;;15.90;99.90;;;;;;5042954;28;20076;-78
2022/07/22 03:21:21;;;;;;;1.73;0.43;;;15.90;99.90;;;;;;5040328;28;20069;-79
2022/07/22 03:23:46;;;;;;;1.35;0.35;;;15.90;99.90;;;;;;5037733;28;20401;-78
2022/07/22 03:26:12;;;;;;;1.27;0.40;;;15.90;99.90;;;;;;5025243;28;20033;-78
2022/07/22 03:28:38;;;;;;;0.70;0.32;;;16.00;99.90;;;;;;5041674;28;20040;-78
2022/07/22 03:31:03;;;;;;;0.73;0.40;;;15.90;99.90;;;;;;5024237;28;20529;-78
2022/07/22 03:33:29;;;;;;;3.05;0.50;;;15.90;99.90;;;;;;5038566;28;20124;-78
2022/07/22 03:35:55;;;;;;;1.83;0.50;;;15.90;99.90;;;;;;5041066;28;20033;-78
2022/07/22 03:38:20;;;;;;;0.93;0.47;;;15.90;99.90;;;;;;5039880;28;20490;-78
2022/07/22 03:40:46;;;;;;;1.85;0.30;;;15.90;99.90;;;;;;5041305;28;20025;-78
2022/07/22 03:43:11;;;;;;;0.88;0.57;;;15.90;99.90;;;;;;5038311;28;20493;-78
2022/07/22 03:45:37;;;;;;;2.00;0.40;;;15.90;99.90;;;;;;5023565;28;20698;-78
2022/07/22 03:48:03;;;;;;;2.72;0.47;;;15.80;99.90;;;;;;5042065;28;20036;-78
2022/07/22 03:50:29;;;;;;;1.00;0.40;;;15.80;99.90;;;;;;5040396;28;20037;-78
2022/07/22 03:52:54;;;;;;;2.40;0.55;;;15.90;99.90;;;;;;5036047;28;20107;-78
2022/07/22 03:55:20;;;;;;;0.85;0.30;;;15.80;99.90;;;;;;5039524;28;20047;-78
2022/07/22 03:57:46;;;;;;;0.85;0.40;;;15.80;99.90;;;;;;5038093;28;20397;-78
2022/07/22 04:00:12;;;;;;;1.23;0.38;;;15.80;99.90;;;;;;5039734;28;20479;-78
2022/07/22 04:02:37;;;;;;;0.50;0.30;;;15.80;99.90;;;;;;5036934;28;20033;-77
2022/07/22 04:05:03;;;;;;;0.88;0.45;;;15.90;99.90;;;;;;5041061;28;20893;-78
2022/07/22 04:07:29;;;;;;;0.47;0.22;;;15.90;99.90;;;;;;5041210;28;20233;-78
2022/07/22 04:10:04;;;;;;;2.20;0.90;;;15.90;99.90;;;;;;5036796;28;20502;-78
2022/07/22 04:12:34;;;;;;;1.67;0.65;;;15.90;99.90;;;;;;5040882;28;20431;-78
2022/07/22 04:15:00;;;;;;;1.15;0.50;;;15.90;99.90;;;;;;5036814;28;20053;-78
2022/07/22 04:17:25;;;;;;;1.58;0.68;;;15.90;99.90;;;;;;5024281;28;20178;-78
2022/07/22 04:19:51;;;;;;;0.70;0.40;;;15.90;99.90;;;;;;5037976;28;20885;-78
2022/07/22 04:22:16;;;;;;;1.02;0.52;;;15.90;99.90;;;;;;5022555;28;20033;-78
2022/07/22 04:24:42;;;;;;;3.90;0.60;;;15.90;99.90;;;;;;5023030;28;20033;-78
2022/07/22 04:27:08;;;;;;;0.90;0.55;;;15.90;99.90;;;;;;5023967;28;20037;-78
2022/07/22 04:29:33;;;;;;;1.27;0.50;;;15.90;99.90;;;;;;5038367;28;20041;-78
2022/07/22 04:31:59;;;;;;;2.30;0.77;;;15.90;99.90;;;;;;5036738;28;21264;-78
2022/07/22 04:34:25;;;;;;;1.73;0.45;;;15.90;99.90;;;;;;5039526;28;20119;-78
2022/07/22 04:36:50;;;;;;;1.10;0.40;;;15.90;99.90;;;;;;5038888;28;20143;-78
2022/07/22 04:39:17;;;;;;;0.80;0.50;;;15.90;99.90;;;;;;5039698;28;20043;-78
2022/07/22 04:41:43;;;;;;;1.45;0.60;;;15.90;99.90;;;;;;5036413;28;20041;-78
2022/07/22 04:44:09;;;;;;;0.90;0.38;;;15.90;99.90;;;;;;5037020;28;20056;-77
2022/07/22 04:46:34;;;;;;;3.03;0.40;;;15.90;99.90;;;;;;5035284;28;20034;-78
2022/07/22 04:49:00;;;;;;;1.10;0.70;;;15.90;99.90;;;;;;5040853;28;20040;-77
2022/07/22 04:51:25;;;;;;;8.35;0.68;;;15.90;99.90;;;;;;5020990;28;20413;-78
2022/07/22 04:53:51;;;;;;;3.47;0.50;;;15.90;99.90;;;;;;5017993;28;20069;-78
2022/07/22 04:56:17;;;;;;;1.13;0.63;;;16.00;99.90;;;;;;5039704;28;20368;-78
2022/07/22 04:58:42;;;;;;;0.77;0.47;;;16.00;99.90;;;;;;5037521;28;20040;-78
2022/07/22 05:01:08;;;;;;;3.58;0.55;;;16.00;99.90;;;;;;5038634;28;20549;-78
2022/07/22 05:03:37;;;;;;;0.88;0.38;;;16.00;99.90;;;;;;5038751;28;20128;-78
2022/07/22 05:06:02;;;;;;;3.13;0.55;;;16.10;99.90;;;;;;5052122;28;20457;-78
2022/07/22 05:08:28;;;;;;;1.88;0.50;;;16.10;99.90;;;;;;5018318;28;20089;-77
2022/07/22 05:10:53;;;;;;;1.02;0.50;;;16.10;99.90;;;;;;5036340;28;20055;-78
2022/07/22 05:13:19;;;;;;;3.72;0.68;;;16.10;99.90;;;;;;5037688;28;20056;-78
2022/07/22 05:15:44;;;;;;;1.10;0.50;;;16.20;99.90;;;;;;5035364;28;20111;-78
2022/07/22 05:18:10;;;;;;;0.32;0.20;;;16.20;99.90;;;;;;5036121;28;20102;-77
2022/07/22 05:20:36;;;;;;;0.52;0.32;;;16.20;99.90;;;;;;5022472;28;20033;-78
2022/07/22 05:23:02;;;;;;;2.42;0.40;;;16.20;99.90;;;;;;5037982;28;20565;-77
2022/07/22 05:25:28;;;;;;;0.60;0.43;;;16.20;99.90;;;;;;5039174;28;20047;-78
2022/07/22 05:27:55;;;;;;;6.38;0.60;;;16.20;99.90;;;;;;5020785;28;20033;-78
2022/07/22 05:30:21;;;;;;;1.10;0.50;;;16.20;99.90;;;;;;5031404;28;20123;-78
2022/07/22 05:32:47;;;;;;;1.25;0.40;;;16.20;99.90;;;;;;5040327;28;20045;-78
2022/07/22 05:35:13;;;;;;;0.63;0.40;;;16.20;99.90;;;;;;5029413;28;20561;-78
2022/07/22 05:37:38;;;;;;;5.15;0.80;;;16.20;99.90;;;;;;5022343;28;20044;-78
2022/07/22 05:40:04;;;;;;;1.48;0.45;;;16.10;99.90;;;;;;5038696;28;20040;-75
2022/07/22 05:42:30;;;;;;;0.80;0.40;;;16.20;99.90;;;;;;5045362;28;20039;-79
2022/07/22 05:44:56;;;;;;;2.72;0.63;;;16.20;99.90;;;;;;5027101;28;20032;-78
2022/07/22 05:47:21;;;;;;;0.95;0.40;;;16.20;99.90;;;;;;5046807;28;20088;-79
2022/07/22 05:49:47;;;;;;;2.72;0.35;;;16.20;99.90;;;;;;5041064;28;20041;-79
2022/07/22 05:52:13;;;;;;;0.90;0.32;;;16.20;99.90;;;;;;5034097;28;20264;-80
2022/07/22 05:54:39;;;;;;;1.10;0.45;;;16.20;99.90;;;;;;5042363;28;20110;-78
2022/07/22 05:57:08;;;;;;;0.55;0.22;;;16.20;99.90;;;;;;5041188;28;20558;-77
2022/07/22 05:59:34;;;;;;;3.10;0.50;;;16.20;99.90;;;;;;5039331;28;20044;-77
2022/07/22 06:01:59;;;;;;;1.98;0.50;;;16.30;99.90;;;;;;5042761;28;20099;-78
2022/07/22 06:04:25;;;;;;;1.48;0.55;;;16.30;99.90;;;;;;5040062;28;20041;-76
2022/07/22 06:06:50;;;;;;;1.48;0.25;;;16.30;99.90;;;;;;5044940;28;20075;-77
2022/07/22 06:09:16;;;;;;;1.27;0.55;;;16.30;99.90;;;;;;5037321;28;20088;-77
2022/07/22 06:11:42;;;;;;;0.75;0.40;;;16.40;99.90;;;;;;5042521;28;20102;-77
2022/07/22 06:14:07;;;;;;;1.27;0.43;;;16.30;99.90;;;;;;5039222;28;20513;-79
2022/07/22 06:16:34;;;;;;;0.50;0.30;;;16.40;99.90;;;;;;5041349;28;20047;-77
2022/07/22 06:19:00;;;;;;;4.63;0.70;;;16.30;99.90;;;;;;5022005;28;20037;-79
2022/07/22 06:21:26;;;;;;;0.85;0.40;;;16.40;99.90;;;;;;5039799;28;20040;-77
2022/07/22 06:23:52;;;;;;;0.75;0.43;;;16.40;99.90;;;;;;5038877;28;20559;-77
2022/07/22 06:26:18;;;;;;;1.13;0.45;;;16.40;99.90;;;;;;5041568;28;20068;-75
2022/07/22 06:28:44;;;;;;;1.55;0.50;;;16.40;99.90;;;;;;5036755;28;20208;-80
2022/07/22 06:31:09;;;;;;;0.80;0.22;;;16.50;99.90;;;;;;5041877;28;20040;-80
2022/07/22 06:33:35;;;;;;;2.42;0.52;;;16.50;99.90;;;;;;5038510;28;20040;-80
2022/07/22 06:36:01;;;;;;;3.92;0.40;;;16.50;99.90;;;;;;5026917;28;20120;-79
2022/07/22 06:38:26;;;;;;;2.65;0.57;;;16.60;99.90;;;;;;5041762;28;20125;-76
2022/07/22 06:40:52;;;;;;;3.33;0.70;;;16.60;99.90;;;;;;5045467;28;20469;-77
2022/07/22 06:43:18;;;;;;;1.05;0.57;;;16.60;99.90;;;;;;5037087;28;20029;-78
2022/07/22 06:45:43;;;;;;;0.82;0.50;;;16.60;99.90;;;;;;5041284;28;20049;-79
2022/07/22 06:48:09;;;;;;;1.83;0.80;;;16.70;99.90;;;;;;5055437;28;20040;-79
2022/07/22 06:50:34;;;;;;;1.27;0.70;;;16.70;99.90;;;;;;5044339;28;20325;-78
2022/07/22 06:53:00;;;;;;;0.77;0.40;;;16.70;99.90;;;;;;5039830;28;20395;-78
2022/07/22 06:55:26;;;;;;;1.13;0.40;;;16.70;99.90;;;;;;5032610;28;20059;-77
2022/07/22 06:57:51;;;;;;;2.00;0.55;;;16.80;99.90;;;;;;5047383;28;20025;-78
2022/07/22 07:00:18;;;;;;;1.35;0.50;;;16.80;99.90;;;;;;5036802;28;20401;-79
2022/07/22 07:02:44;;;;;;;0.38;0.20;;;16.80;99.90;;;;;;5048948;28;20052;-78
2022/07/22 07:05:11;;;;;;;2.08;0.32;;;16.90;99.90;;;;;;5044198;28;20133;-79
2022/07/22 07:07:36;;;;;;;1.85;0.52;;;16.80;99.90;;;;;;5043400;28;20072;-79
2022/07/22 07:10:03;;;;;;;0.50;0.30;;;16.80;99.90;;;;;;5026249;28;20127;-79
2022/07/22 07:12:28;;;;;;;1.88;0.50;;;16.80;99.90;;;;;;5041527;28;20055;-78
2022/07/22 07:14:54;;;;;;;1.23;0.30;;;16.90;99.90;;;;;;5022646;28;20052;-78
2022/07/22 07:17:20;;;;;;;0.70;0.30;;;16.90;99.90;;;;;;5041729;28;20037;-80
2022/07/22 07:19:45;;;;;;;0.90;0.40;;;17.00;99.90;;;;;;5054797;28;20033;-81
2022/07/22 07:22:11;;;;;;;0.50;0.20;;;17.00;99.90;;;;;;5037780;28;20037;-79
2022/07/22 07:24:36;;;;;;;2.85;0.50;;;17.10;99.90;;;;;;5042853;28;20037;-78
2022/07/22 07:27:02;;;;;;;3.78;0.40;;;17.10;99.90;;;;;;5039486;28;20053;-79
2022/07/22 07:29:28;;;;;;;0.70;0.30;;;17.20;99.90;;;;;;5041978;28;20041;-79
2022/07/22 07:31:53;;;;;;;3.22;0.40;;;17.10;99.90;;;;;;5026346;28;20044;-79
2022/07/22 07:34:19;;;;;;;3.50;0.60;;;17.30;99.90;;;;;;5040534;28;20274;-78
2022/07/22 07:36:45;;;;;;;2.10;0.47;;;17.30;99.90;;;;;;5041776;28;20044;-79
2022/07/22 07:39:10;;;;;;;0.57;0.38;;;17.40;99.90;;;;;;5017387;28;20044;-80
2022/07/22 07:41:36;;;;;;;1.58;0.50;;;17.40;99.90;;;;;;5039547;28;20029;-82
2022/07/22 07:44:02;;;;;;;0.60;0.32;;;17.40;99.90;;;;;;5043698;28;20033;-80
2022/07/22 07:46:27;;;;;;;1.75;0.40;;;17.40;99.90;;;;;;5020011;28;20041;-80
2022/07/22 07:48:53;;;;;;;0.50;0.30;;;17.50;99.90;;;;;;5028841;28;20175;-80
2022/07/22 07:51:19;;;;;;;0.75;0.50;;;17.50;99.90;;;;;;5038058;28;20426;-79
2022/07/22 07:53:45;;;;;;;0.88;0.47;;;17.50;99.90;;;;;;5041261;28;20110;-79
2022/07/22 07:56:11;;;;;;;0.80;0.30;;;17.50;99.90;;;;;;5040039;28;20072;-79
2022/07/22 07:58:37;;;;;;;0.68;0.40;;;17.50;99.90;;;;;;5042768;28;20063;-79
2022/07/22 08:01:03;;;;;;;1.58;0.45;;;17.50;99.90;;;;;;5040895;28;20098;-78
2022/07/22 08:03:28;;;;;;;2.35;0.70;;;17.50;99.90;;;;;;5038650;28;20502;-79
2022/07/22 08:05:54;;;;;;;0.40;0.28;;;17.60;99.90;;;;;;5038303;28;20045;-79
2022/07/22 08:08:20;;;;;;;0.30;0.20;;;17.50;99.90;;;;;;5038737;28;20478;-79
2022/07/22 08:10:46;;;;;;;2.20;0.40;;;17.50;99.90;;;;;;5039401;28;20483;-79
2022/07/22 08:13:11;;;;;;;0.70;0.40;;;17.60;99.90;;;;;;5042820;28;20498;-79
2022/07/22 08:15:37;;;;;;;2.92;0.65;;;17.50;99.90;;;;;;5021274;28;20068;-81
2022/07/22 08:18:03;;;;;;;0.60;0.30;;;17.60;99.90;;;;;;5033971;28;20158;-80
2022/07/22 08:20:29;;;;;;;1.00;0.77;;;17.60;99.90;;;;;;5036909;28;20040;-77
2022/07/22 08:22:55;;;;;;;0.65;0.30;;;17.60;99.90;;;;;;5020526;28;21867;-77
2022/07/22 08:25:21;;;;;;;2.30;0.40;;;17.60;99.90;;;;;;5035725;28;20063;-77
2022/07/22 08:27:47;;;;;;;0.77;0.38;;;17.60;99.90;;;;;;5036648;28;20041;-77
2022/07/22 08:30:13;;;;;;;1.83;0.50;;;17.50;99.90;;;;;;5045113;28;20192;-77
2022/07/22 08:32:39;;;;;;;3.20;0.50;;;17.60;99.90;;;;;;5037260;28;20056;-77
2022/07/22 08:35:05;;;;;;;1.75;0.45;;;17.60;99.90;;;;;;5041686;28;20040;-77
2022/07/22 08:37:31;;;;;;;1.08;0.35;;;17.60;99.90;;;;;;5049967;28;20049;-78
2022/07/22 08:39:58;;;;;;;0.32;0.22;;;17.60;99.90;;;;;;5040540;28;20398;-78
2022/07/22 08:42:24;;;;;;;0.32;0.20;;;17.50;99.90;;;;;;5050506;28;20040;-78
2022/07/22 08:44:52;;;;;;;1.13;0.30;;;17.60;99.90;;;;;;5036695;28;20033;-83
2022/07/22 08:47:23;;;;;;;0.70;0.40;;;17.60;99.90;;;;;;5037661;28;20040;-77
2022/07/22 08:49:49;;;;;;;2.00;0.47;;;17.60;99.90;;;;;;5050124;28;20036;-78
2022/07/22 08:52:14;;;;;;;2.42;0.40;;;17.70;99.90;;;;;;5020432;28;20127;-78
2022/07/22 08:54:40;;;;;;;0.40;0.30;;;17.80;99.90;;;;;;5022328;28;20734;-82
2022/07/22 08:57:06;;;;;;;0.30;0.22;;;17.80;99.90;;;;;;5039800;28;20052;-77
2022/07/22 08:59:31;;;;;;;0.98;0.43;;;17.90;99.90;;;;;;5039671;28;20037;-77
2022/07/22 09:02:06;;;;;;;1.48;0.30;;;17.90;99.90;;;;;;5037693;28;20132;-77
2022/07/22 09:04:32;;;;;;;1.98;0.40;;;18.00;99.90;;;;;;5051660;28;20098;-79
2022/07/22 09:06:58;;;;;;;1.65;0.20;;;18.00;99.90;;;;;;5034349;28;20605;-79
2022/07/22 09:09:34;;;;;;;1.10;0.50;;;18.00;99.90;;;;;;5035457;28;20041;-81
2022/07/22 09:12:06;;;;;;;;;;;18.10;99.90;;;;;;5049053;28;20540;-73
2022/07/22 09:14:50;;;;;;;2.05;0.75;;;18.10;99.90;;;;;;5036805;28;20440;-73
2022/07/22 09:17:28;;;;;;;0.77;0.30;;;18.10;99.90;;;;;;5037460;28;20037;-74
2022/07/22 09:19:56;;;;;;;0.43;0.20;;;18.00;99.90;;;;;;5033280;28;20749;-73
2022/07/22 09:22:32;;;;;;;1.45;0.40;;;18.10;99.90;;;;;;5034887;28;20037;-73
2022/07/22 09:24:59;;;;;;;0.52;0.30;;;18.00;99.90;;;;;;5040054;28;20029;-73
2022/07/22 09:27:26;;;;;;;0.73;0.32;;;17.90;99.90;;;;;;5021647;28;20069;-73
2022/07/22 09:29:53;;;;;;;0.35;0.30;;;17.90;99.90;;;;;;5054318;28;20048;-74
2022/07/22 09:32:19;;;;;;;0.52;0.25;;;17.90;99.90;;;;;;5024935;28;20091;-74
2022/07/22 09:34:44;;;;;;;0.68;0.30;;;17.90;99.90;;;;;;5040297;28;20091;-71
2022/07/22 09:37:11;;;;;;;1.45;0.30;;;17.80;99.90;;;;;;5037424;28;20041;-75
2022/07/22 09:39:37;;;;;;;1.55;0.40;;;17.80;99.90;;;;;;5038559;28;20515;-75
2022/07/22 09:42:07;;;;;;;1.25;0.40;;;17.70;99.90;;;;;;5023475;28;20174;-84
2022/07/22 09:44:34;;;;;;;2.40;0.60;;;17.70;99.90;;;;;;5034398;28;20036;-75
2022/07/22 09:46:59;;;;;;;0.77;0.43;;;17.70;99.90;;;;;;5034707;28;20045;-79
2022/07/22 09:49:38;;;;;;;1.58;0.40;;;17.80;99.90;;;;;;5018780;28;20040;-80
2022/07/22 09:52:04;;;;;;;0.40;0.20;;;17.70;99.90;;;;;;5033285;28;20036;-80
2022/07/22 09:54:31;;;;;;;1.73;0.45;;;17.70;99.90;;;;;;5035492;28;20094;-79
2022/07/22 09:56:57;;;;;;;0.60;0.40;;;17.70;99.90;;;;;;5031841;28;20045;-79
2022/07/22 09:59:23;;;;;;;1.33;0.30;;;17.70;99.90;;;;;;5020800;28;20111;-79
2022/07/22 10:01:53;;;;;;;0.68;0.30;;;17.70;99.90;;;;;;5037785;28;20518;-79
2022/07/22 10:04:20;;;;;;;0.43;0.30;;;17.70;99.90;;;;;;5033224;28;20048;-79
2022/07/22 10:06:48;;;;;;;0.80;0.40;;;17.70;99.90;;;;;;5036635;28;20045;-79
2022/07/22 10:09:16;;;;;;;0.28;0.20;;;17.60;99.90;;;;;;5034830;28;20094;-75
2022/07/22 10:11:45;;;;;;;0.70;0.30;;;17.60;99.90;;;;;;5033357;28;20044;-75
2022/07/22 10:14:13;;;;;;;0.43;0.30;;;17.60;99.90;;;;;;5036781;28;20091;-77
2022/07/22 10:16:39;;;;;;;1.60;0.70;;;17.60;99.90;;;;;;5020775;28;20051;-76
2022/07/22 10:19:05;;;;;;;1.15;0.40;;;17.60;99.90;;;;;;5038635;28;20033;-76
2022/07/22 10:21:33;;;;;;;1.98;0.32;;;17.60;99.90;;;;;;5039820;28;20056;-76
2022/07/22 10:24:11;;;;;;;5.93;0.57;;;17.50;99.90;;;;;;5041099;28;20037;-76
2022/07/22 10:26:48;;;;;;;0.65;0.40;;;17.50;99.90;;;;;;5040874;28;20041;-76
2022/07/22 10:29:27;;;;;;;1.85;0.40;;;17.50;99.90;;;;;;5057810;28;20517;-76
2022/07/22 10:32:16;;;;;;;2.20;0.40;;;17.40;99.90;;;;;;5027821;28;20495;-76
2022/07/22 10:34:57;;;;;;;1.23;0.50;;;17.40;99.90;;;;;;5034019;28;20150;-72
2022/07/22 10:37:34;;;;;;;0.90;0.35;;;17.40;99.90;;;;;;5042216;28;20527;-75
2022/07/22 10:40:14;;;;;;;5.65;0.68;;;17.40;99.90;;;;;;5043297;28;20548;-75
2022/07/22 10:43:08;;;;;;;2.30;0.52;;;17.40;99.90;;;;;;5039359;28;20116;-76
2022/07/22 10:45:52;;;;;;;0.98;0.50;;;17.40;99.90;;;;;;5053681;28;20033;-76
2022/07/22 10:48:22;;;;;;;1.23;0.65;;;17.40;99.90;;;;;;5043878;28;20067;-76
2022/07/22 10:50:50;;;;;;;2.97;0.52;;;17.50;99.90;;;;;;5044685;28;20343;-76
2022/07/22 10:53:39;;;;;;;0.45;0.28;;;17.60;99.90;;;;;;5039874;28;20045;-76
2022/07/22 10:56:06;;;;;;;0.30;0.30;;;17.60;99.90;;;;;;5039980;28;20082;-76
2022/07/22 10:58:35;;;;;;;3.08;0.38;;;17.70;99.90;;;;;;5042225;28;20494;-76
2022/07/22 11:01:06;;;;;;;3.40;0.30;;;17.70;99.90;;;;;;5059514;28;20256;-76
2022/07/22 11:03:34;;;;;;;1.02;0.20;;;17.80;99.90;;;;;;5043402;28;20483;-75
2022/07/22 11:06:25;;;;;;;0.15;0.13;;;17.80;99.90;;;;;;5051150;28;20033;-72
2022/07/22 11:09:06;;;;;;;0.98;0.32;;;17.90;99.90;;;;;;5037162;28;20102;-75
2022/07/22 11:11:38;;;;;;;0.50;0.35;;;17.90;99.90;;;;;;5037458;28;20439;-76
2022/07/22 11:14:30;;;;;;;2.13;0.40;;;18.00;99.90;;;;;;5058696;28;20162;-75
2022/07/22 11:17:05;;;;;;;1.27;0.40;;;18.00;99.90;;;;;;5036938;28;20131;-75
2022/07/22 11:19:32;;;;;;;0.63;0.22;;;18.10;99.90;;;;;;5048327;28;20078;-76
2022/07/22 11:22:04;;;;;;;0.40;0.20;;;18.10;99.90;;;;;;5043763;28;20507;-74
2022/07/22 11:24:30;;;;;;;1.15;0.50;;;18.10;99.90;;;;;;5038325;28;20037;-76
2022/07/22 11:26:58;;;;;;;0.17;0.10;;;18.20;99.90;;;;;;5039027;28;20122;-75
2022/07/22 11:29:33;;;;;;;0.55;0.20;;;18.30;99.90;;;;;;5025838;28;20175;-75
2022/07/22 11:31:59;;;;;;;0.65;0.30;;;18.40;99.90;;;;;;5041853;28;20049;-75
2022/07/22 11:34:26;;;;;;;0.88;0.17;;;18.40;99.90;;;;;;5043406;28;20045;-75
2022/07/22 11:36:53;;;;;;;0.75;0.30;;;18.50;99.90;;;;;;5055349;28;20041;-75
2022/07/22 11:39:27;;;;;;;0.85;0.32;;;18.50;99.90;;;;;;5042507;28;20036;-75
2022/07/22 11:41:54;;;;;;;0.30;0.22;;;18.60;99.90;;;;;;5052187;28;20564;-75
2022/07/22 11:44:21;;;;;;;0.88;0.32;;;18.70;99.90;;;;;;5039988;28;20059;-75
2022/07/22 11:46:48;;;;;;;0.55;0.32;;;18.70;99.90;;;;;;5054038;28;20055;-75
2022/07/22 11:49:15;;;;;;;0.52;0.30;;;18.70;99.90;;;;;;5027407;28;20395;-75
2022/07/22 11:51:42;;;;;;;1.10;0.50;;;18.80;99.90;;;;;;5040737;28;20049;-75
2022/07/22 11:54:08;;;;;;;1.25;0.40;;;18.90;99.90;;;;;;5022685;28;20155;-75
2022/07/22 11:56:35;;;;;;;0.55;0.38;;;18.90;99.90;;;;;;5041924;28;20566;-75
2022/07/22 11:59:04;;;;;;;0.75;0.30;;;18.90;99.90;;;;;;5032654;28;20056;-73
2022/07/22 12:01:31;;;;;;;1.35;0.40;;;19.00;99.90;;;;;;5053838;28;21498;-75
2022/07/22 12:04:06;;;;;;;0.65;0.30;;;19.00;99.90;;;;;;5019387;28;20240;-75
2022/07/22 12:06:37;;;;;;;0.32;0.22;;;18.90;99.90;;;;;;5041523;28;20041;-75
2022/07/22 12:09:15;;;;;;;0.63;0.35;;;18.90;99.90;;;;;;5039474;28;20037;-75
2022/07/22 12:11:44;;;;;;;1.38;0.50;;;18.90;99.90;;;;;;5039256;28;20295;-75
2022/07/22 12:14:12;;;;;;;1.17;0.50;;;19.00;99.90;;;;;;5038465;28;20053;-75
2022/07/22 12:16:39;;;;;;;0.40;0.30;;;18.90;99.90;;;;;;5038975;28;20087;-74
2022/07/22 12:19:10;;;;;;;0.80;0.30;;;18.90;99.90;;;;;;5037626;28;20756;-74
2022/07/22 12:22:01;;;;;;;1.10;0.65;;;19.00;99.90;;;;;;5041756;28;20040;-74
2022/07/22 12:24:39;;;;;;;0.73;0.35;;;19.00;99.90;;;;;;5041957;28;20032;-74
2022/07/22 12:27:10;;;;;;;0.93;0.30;;;19.00;99.90;;;;;;5040905;28;20044;-75
2022/07/22 12:29:35;;;;;;;1.00;0.30;;;19.00;99.90;;;;;;5037562;28;20215;-74
2022/07/22 12:32:03;;;;;;;1.25;0.43;;;18.90;99.90;;;;;;5037987;28;20056;-74
2022/07/22 12:34:35;;;;;;;0.32;0.22;;;18.90;99.90;;;;;;5040778;28;20037;-73
2022/07/22 12:37:26;;;;;;;0.38;0.28;;;18.90;99.90;;;;;;5040232;28;20297;-74
2022/07/22 12:40:20;;;;;;;0.30;0.20;;;18.90;99.60;;;;;;5040625;28;20080;-74
2022/07/22 12:43:06;;;;;;;0.90;0.20;;;18.90;99.70;;;;;;5031888;28;20049;-73
2022/07/22 12:45:35;;;;;;;0.93;0.30;;;18.90;99.70;;;;;;5041217;28;20048;-65
2022/07/22 12:48:03;;;;;;;0.60;0.38;;;18.90;99.90;;;;;;5037586;28;20041;-73
2022/07/22 12:50:30;;;;;;;2.47;0.40;;;18.90;99.90;;;;;;5042519;28;20084;-73